Terminal Aerodrome Forecast
Issued by NWS

Home | Current Version | Previous Version | Text Only | Print | Product List | Glossary On
Versions: 1 2 3 4 5 6 7 8 9 10 11 12 13
000
FTUS41 KBTV 301126
TAFMSS
TAF
KMSS 301126Z 3012/0112 04004KT P6SM SKC
     FM301600 03007KT P6SM SKC
     FM010200 07006KT P6SM SCT200
     FM010800 06006KT P6SM OVC080=

USA.gov is the U.S. government's official web portal to all federal, state and local government web resources and services.